createdAt,value
2024-04-19T00:00:12.640Z,0.00
2024-04-19T00:01:12.717Z,0.00
2024-04-19T00:02:12.593Z,0.00
2024-04-19T00:03:12.630Z,0.00
2024-04-19T00:04:12.766Z,0.00
2024-04-19T00:05:12.536Z,0.00
2024-04-19T00:06:12.554Z,0.00
2024-04-19T00:07:12.503Z,0.00
2024-04-19T00:08:12.485Z,0.00
2024-04-19T00:09:12.490Z,0.00
2024-04-19T00:10:12.457Z,0.00
2024-04-19T00:11:12.502Z,0.00
2024-04-19T00:12:12.453Z,0.00
2024-04-19T00:13:12.403Z,0.00
2024-04-19T00:14:12.396Z,0.00
2024-04-19T00:15:12.400Z,0.00
2024-04-19T00:16:12.350Z,0.00
2024-04-19T00:17:12.335Z,0.00
2024-04-19T00:18:12.373Z,0.00
2024-04-19T00:19:12.346Z,0.00
2024-04-19T00:20:12.289Z,0.00
2024-04-19T00:21:12.324Z,0.00
2024-04-19T00:22:12.260Z,0.00
2024-04-19T00:23:12.242Z,0.00
2024-04-19T00:24:12.485Z,0.00
2024-04-19T00:25:12.205Z,0.00
2024-04-19T00:26:12.187Z,0.00
2024-04-19T00:27:12.197Z,0.00
2024-04-19T00:28:12.173Z,0.00
2024-04-19T00:29:12.138Z,0.00
2024-04-19T00:30:12.177Z,0.00
2024-04-19T00:31:12.108Z,0.00
2024-04-19T00:32:12.123Z,0.00
2024-04-19T00:33:14.431Z,0.00
2024-04-19T00:34:12.142Z,0.00
2024-04-19T00:35:12.050Z,0.00
2024-04-19T00:36:12.085Z,0.00
2024-04-19T00:37:12.011Z,0.00
2024-04-19T00:38:11.994Z,0.00
2024-04-19T00:39:12.135Z,0.00
2024-04-19T00:40:11.957Z,0.00
2024-04-19T00:41:11.946Z,0.00
2024-04-19T00:42:11.964Z,0.00
2024-04-19T00:43:11.911Z,0.00
2024-04-19T00:44:11.897Z,0.00
2024-04-19T00:45:11.892Z,0.00
2024-04-19T00:46:11.862Z,0.00
2024-04-19T00:47:11.845Z,0.00
2024-04-19T00:48:11.907Z,0.00
2024-04-19T00:49:11.809Z,0.00
2024-04-19T00:50:11.793Z,0.00
2024-04-19T00:51:12.025Z,0.00
2024-04-19T00:52:11.759Z,0.00
2024-04-19T00:53:11.751Z,0.00
2024-04-19T00:54:11.748Z,0.00
2024-04-19T00:55:11.713Z,0.00
2024-04-19T00:56:11.692Z,0.00
2024-04-19T00:57:11.684Z,0.00
2024-04-19T00:58:11.663Z,0.00
2024-04-19T00:59:11.644Z,0.00
2024-04-19T01:00:11.678Z,0.00
2024-04-19T01:01:11.660Z,0.00
2024-04-19T01:02:11.744Z,0.00
2024-04-19T01:03:11.618Z,0.00
2024-04-19T01:04:11.666Z,0.00
2024-04-19T01:05:11.547Z,0.00
2024-04-19T01:06:11.561Z,0.00
2024-04-19T01:07:11.522Z,0.00
2024-04-19T01:08:11.497Z,0.00
2024-04-19T01:09:11.560Z,0.00
2024-04-19T01:10:11.461Z,0.00
2024-04-19T01:11:11.463Z,0.00
2024-04-19T01:12:11.457Z,0.00
2024-04-19T01:13:11.408Z,0.00
2024-04-19T01:14:11.396Z,0.00
2024-04-19T01:15:11.428Z,0.00
2024-04-19T01:16:11.361Z,0.00
2024-04-19T01:17:11.365Z,0.00
2024-04-19T01:18:11.437Z,0.00
2024-04-19T01:19:11.382Z,0.00
2024-04-19T01:20:11.300Z,0.00
2024-04-19T01:21:11.281Z,0.00
2024-04-19T01:22:11.260Z,0.00
2024-04-19T01:23:11.258Z,0.00
2024-04-19T01:24:11.248Z,0.00
2024-04-19T01:25:11.222Z,0.00
2024-04-19T01:27:11.211Z,0.00
2024-04-19T01:28:11.169Z,0.00
2024-04-19T01:29:11.147Z,0.00
2024-04-19T01:30:11.154Z,0.00
2024-04-19T01:31:11.114Z,0.00
2024-04-19T01:32:11.100Z,0.00
2024-04-19T01:33:11.180Z,0.00
2024-04-19T01:34:11.092Z,0.00
2024-04-19T01:35:11.048Z,0.00
2024-04-19T01:36:11.054Z,0.00
2024-04-19T01:37:11.014Z,0.00
2024-04-19T01:38:10.999Z,0.00
2024-04-19T01:39:11.015Z,0.00
2024-04-19T01:40:10.974Z,0.00
2024-04-19T01:41:10.952Z,0.00
2024-04-19T01:42:10.999Z,0.00
2024-04-19T01:43:10.922Z,0.00
2024-04-19T01:44:10.903Z,0.00
2024-04-19T01:45:10.956Z,0.00
2024-04-19T01:46:10.871Z,0.00
2024-04-19T01:47:10.877Z,0.00
2024-04-19T01:48:10.896Z,0.00
2024-04-19T01:49:10.826Z,0.00
2024-04-19T01:50:10.802Z,0.00
2024-04-19T01:51:10.810Z,0.00
2024-04-19T01:52:10.768Z,0.00
2024-04-19T01:53:10.749Z,0.00
2024-04-19T01:54:10.803Z,0.00
2024-04-19T01:55:16.736Z,0.00
2024-04-19T01:56:10.722Z,0.00
2024-04-19T01:57:10.735Z,0.00
2024-04-19T01:58:10.688Z,0.00
2024-04-19T01:59:10.661Z,0.00
2024-04-19T02:00:10.697Z,0.00
2024-04-19T02:01:10.707Z,0.00
2024-04-19T02:02:10.634Z,0.00
2024-04-19T02:03:10.584Z,0.00
2024-04-19T02:04:10.643Z,0.00
2024-04-19T02:05:10.556Z,0.00
2024-04-19T02:06:10.574Z,0.00
2024-04-19T02:07:10.515Z,0.00
2024-04-19T02:08:10.506Z,0.00
2024-04-19T02:09:10.583Z,0.00
2024-04-19T02:10:10.464Z,0.00
2024-04-19T02:11:10.592Z,0.00
2024-04-19T02:12:10.463Z,0.00
2024-04-19T02:13:10.422Z,0.00
2024-04-19T02:14:10.399Z,0.00
2024-04-19T02:15:10.394Z,0.00
2024-04-19T02:16:10.367Z,0.00
2024-04-19T02:17:10.364Z,0.00
2024-04-19T02:18:10.364Z,0.00
2024-04-19T02:19:10.341Z,0.00
2024-04-19T02:20:10.306Z,0.00
2024-04-19T02:21:10.286Z,0.00
2024-04-19T02:22:10.267Z,0.00
2024-04-19T02:23:10.248Z,0.00
2024-04-19T02:24:10.251Z,0.00
2024-04-19T02:25:10.216Z,0.00
2024-04-19T02:26:10.206Z,0.00
2024-04-19T02:27:10.181Z,0.00
2024-04-19T02:28:10.198Z,0.00
2024-04-19T02:29:10.160Z,0.00
2024-04-19T02:30:10.138Z,0.00
2024-04-19T02:31:10.114Z,0.00
2024-04-19T02:32:10.098Z,0.00
2024-04-19T02:33:10.145Z,0.00
2024-04-19T02:34:10.136Z,0.00
2024-04-19T02:35:10.047Z,0.00
2024-04-19T02:36:10.032Z,0.00
2024-04-19T02:37:10.013Z,0.00
2024-04-19T02:38:10.001Z,0.00
2024-04-19T02:39:09.982Z,0.00
2024-04-19T02:40:09.976Z,0.00
2024-04-19T02:41:09.950Z,0.00
2024-04-19T02:42:09.937Z,0.00
2024-04-19T02:43:09.915Z,0.00
2024-04-19T02:44:09.906Z,0.00
2024-04-19T02:45:09.878Z,0.00
2024-04-19T02:46:09.933Z,0.00
2024-04-19T02:47:09.910Z,0.00
2024-04-19T02:48:09.836Z,0.00
2024-04-19T02:49:09.819Z,0.00
2024-04-19T02:50:09.803Z,0.00
2024-04-19T02:51:09.787Z,0.00
2024-04-19T02:52:09.778Z,0.00
2024-04-19T02:53:09.756Z,0.00
2024-04-19T02:54:09.753Z,0.00
2024-04-19T02:55:09.731Z,0.00
2024-04-19T02:56:09.706Z,0.00
2024-04-19T02:57:09.702Z,0.00
2024-04-19T02:58:09.687Z,0.00
2024-04-19T02:59:09.652Z,0.00
2024-04-19T03:00:09.677Z,0.00
2024-04-19T03:01:09.834Z,0.00
2024-04-19T03:02:09.605Z,0.00
2024-04-19T03:03:09.631Z,0.00
2024-04-19T03:04:09.818Z,0.00
2024-04-19T03:05:09.576Z,0.00
2024-04-19T03:06:09.578Z,0.00
2024-04-19T03:07:09.525Z,0.00
2024-04-19T03:08:09.506Z,0.00
2024-04-19T03:09:09.487Z,0.00
2024-04-19T03:10:09.476Z,0.00
2024-04-19T03:11:09.491Z,0.00
2024-04-19T03:12:09.455Z,0.00
2024-04-19T03:13:09.454Z,0.00
2024-04-19T03:14:09.408Z,0.00
2024-04-19T03:15:09.392Z,0.00
2024-04-19T03:16:09.392Z,0.00
2024-04-19T03:17:09.381Z,0.00
2024-04-19T03:18:09.407Z,0.00
2024-04-19T03:19:09.335Z,0.00
2024-04-19T03:20:09.307Z,0.00
2024-04-19T03:21:09.288Z,0.00
2024-04-19T03:22:09.294Z,0.00
2024-04-19T03:23:09.254Z,0.00
2024-04-19T03:24:09.239Z,0.00
2024-04-19T03:25:09.226Z,0.00
2024-04-19T03:26:09.239Z,0.00
2024-04-19T03:27:09.196Z,0.00
2024-04-19T03:28:09.173Z,0.00
2024-04-19T03:29:09.154Z,0.00
2024-04-19T03:30:09.146Z,0.00
2024-04-19T03:31:09.121Z,0.00
2024-04-19T03:32:09.112Z,0.00
2024-04-19T03:33:09.130Z,0.00
2024-04-19T03:34:09.322Z,0.00
2024-04-19T03:35:09.051Z,0.00
2024-04-19T03:36:09.054Z,0.00
2024-04-19T03:37:09.027Z,0.00
2024-04-19T03:38:09.010Z,0.00
2024-04-19T03:39:08.986Z,0.00
2024-04-19T03:40:08.996Z,0.00
2024-04-19T03:41:08.957Z,0.00
2024-04-19T03:42:08.937Z,0.00
2024-04-19T03:43:08.921Z,0.00
2024-04-19T03:44:08.919Z,0.00
2024-04-19T03:45:08.887Z,0.00
2024-04-19T03:46:08.871Z,0.00
2024-04-19T03:47:08.915Z,0.00
2024-04-19T03:48:08.964Z,0.00
2024-04-19T03:49:08.851Z,0.00
2024-04-19T03:50:08.833Z,0.00
2024-04-19T03:51:08.795Z,0.00
2024-04-19T03:52:08.765Z,0.00
2024-04-19T03:53:08.750Z,0.00
2024-04-19T03:54:08.737Z,0.00
2024-04-19T03:55:08.724Z,0.00
2024-04-19T03:56:08.707Z,0.00
2024-04-19T03:57:08.689Z,0.00
2024-04-19T03:58:08.682Z,0.00
2024-04-19T03:59:08.660Z,0.00
2024-04-19T04:00:08.648Z,0.00
2024-04-19T04:01:08.691Z,0.00
2024-04-19T04:02:08.609Z,0.00
2024-04-19T04:03:08.630Z,0.00
2024-04-19T04:04:08.629Z,0.00
2024-04-19T04:05:08.563Z,0.00
2024-04-19T04:06:08.542Z,0.00
2024-04-19T04:07:08.526Z,0.00
2024-04-19T04:08:08.522Z,0.00
2024-04-19T04:09:08.492Z,0.00
2024-04-19T04:10:08.471Z,0.00
2024-04-19T04:11:08.477Z,4.00
2024-04-19T04:12:08.440Z,4.00
2024-04-19T04:13:08.425Z,0.00
2024-04-19T04:14:08.409Z,0.00
2024-04-19T04:15:08.408Z,4.00
2024-04-19T04:16:08.399Z,4.00
2024-04-19T04:17:08.372Z,0.00
2024-04-19T04:18:08.552Z,4.00
2024-04-19T04:19:08.358Z,4.00
2024-04-19T04:20:08.339Z,4.00
2024-04-19T04:21:08.296Z,4.00
2024-04-19T04:22:08.277Z,8.00
2024-04-19T04:23:08.285Z,4.00
2024-04-19T04:24:08.251Z,8.00
2024-04-19T04:25:08.237Z,8.00
2024-04-19T04:26:08.214Z,8.00
2024-04-19T04:27:08.226Z,12.00
2024-04-19T04:28:08.395Z,12.00
2024-04-19T04:29:08.166Z,16.00
2024-04-19T04:30:08.153Z,16.00
2024-04-19T04:31:08.133Z,16.00
2024-04-19T04:32:08.244Z,20.00
2024-04-19T04:33:08.101Z,20.00
2024-04-19T04:34:08.107Z,24.00
2024-04-19T04:35:08.073Z,24.00
2024-04-19T04:36:08.072Z,28.00
2024-04-19T04:37:08.040Z,32.00
2024-04-19T04:38:08.029Z,32.00
2024-04-19T04:39:08.004Z,28.00
2024-04-19T04:40:08.004Z,32.00
2024-04-19T04:41:07.970Z,32.00
2024-04-19T04:42:07.954Z,36.00
2024-04-19T04:43:07.938Z,36.00
2024-04-19T04:44:08.179Z,36.00
2024-04-19T04:45:07.916Z,40.00
2024-04-19T04:46:07.901Z,40.00
2024-04-19T04:47:07.948Z,40.00
2024-04-19T04:48:07.869Z,40.00
2024-04-19T04:49:07.915Z,40.00
2024-04-19T04:50:07.822Z,40.00
2024-04-19T04:51:09.796Z,40.00
2024-04-19T04:52:07.801Z,44.00
2024-04-19T04:53:07.775Z,48.00
2024-04-19T04:54:07.767Z,48.00
2024-04-19T04:55:07.747Z,48.00
2024-04-19T04:56:07.724Z,48.00
2024-04-19T04:57:07.709Z,52.00
2024-04-19T04:58:07.753Z,56.00
2024-04-19T04:59:07.676Z,60.00
2024-04-19T05:00:07.660Z,64.00
2024-04-19T05:01:07.779Z,64.00
2024-04-19T05:02:07.630Z,72.00
2024-04-19T05:03:07.653Z,72.00
2024-04-19T05:04:07.638Z,80.00
2024-04-19T05:05:07.594Z,80.00
2024-04-19T05:06:07.557Z,88.00
2024-04-19T05:07:07.545Z,88.00
2024-04-19T05:08:07.531Z,92.00
2024-04-19T05:09:07.510Z,104.00
2024-04-19T05:10:07.497Z,108.00
2024-04-19T05:11:07.923Z,108.00
2024-04-19T05:12:07.464Z,108.00
2024-04-19T05:13:07.446Z,108.00
2024-04-19T05:14:07.431Z,116.00
2024-04-19T05:15:07.411Z,124.00
2024-04-19T05:16:07.392Z,132.00
2024-04-19T05:17:07.417Z,152.00
2024-04-19T05:18:07.428Z,168.00
2024-04-19T05:19:07.355Z,172.00
2024-04-19T05:20:07.332Z,168.00
2024-04-19T05:21:07.314Z,168.00
2024-04-19T05:22:07.294Z,172.00
2024-04-19T05:23:07.284Z,180.00
2024-04-19T05:24:07.269Z,180.00
2024-04-19T05:25:07.248Z,172.00
2024-04-19T05:26:07.232Z,176.00
2024-04-19T05:27:07.215Z,164.00
2024-04-19T05:28:07.191Z,160.00
2024-04-19T05:29:07.183Z,164.00
2024-04-19T05:30:07.177Z,160.00
2024-04-19T05:31:07.148Z,156.00
2024-04-19T05:32:07.223Z,168.00
2024-04-19T05:33:07.162Z,168.00
2024-04-19T05:34:07.097Z,168.00
2024-04-19T05:35:07.085Z,176.00
2024-04-19T05:36:07.063Z,188.00
2024-04-19T05:37:07.064Z,208.00
2024-04-19T05:38:07.026Z,208.00
2024-04-19T05:40:07.039Z,244.00
2024-04-19T05:41:07.178Z,264.00
2024-04-19T05:42:07.170Z,272.00
2024-04-19T05:43:06.955Z,288.00
2024-04-19T05:44:06.930Z,308.00
2024-04-19T05:45:06.929Z,324.00
2024-04-19T05:46:06.900Z,356.00
2024-04-19T05:47:06.942Z,384.00
2024-04-19T05:48:07.104Z,404.00
2024-04-19T05:49:06.986Z,424.00
2024-04-19T05:50:06.830Z,428.00
2024-04-19T05:51:06.829Z,440.00
2024-04-19T05:52:06.804Z,456.00
2024-04-19T05:53:06.777Z,476.00
2024-04-19T05:54:06.766Z,500.00
2024-04-19T05:55:06.767Z,504.00
2024-04-19T05:56:06.764Z,528.00
2024-04-19T05:57:06.963Z,536.00
2024-04-19T05:58:06.713Z,568.00
2024-04-19T06:00:06.685Z,640.00
2024-04-19T06:01:06.913Z,640.00
2024-04-19T06:02:06.654Z,608.00
2024-04-19T06:03:06.658Z,612.00
2024-04-19T06:04:06.609Z,640.00
2024-04-19T06:05:06.587Z,672.00
2024-04-19T06:06:06.581Z,684.00
2024-04-19T06:07:06.643Z,664.00
2024-04-19T06:08:06.535Z,668.00
2024-04-19T06:09:06.526Z,672.00
2024-04-19T06:10:06.534Z,692.00
2024-04-19T06:11:06.601Z,696.00
2024-04-19T06:12:06.540Z,640.00
2024-04-19T06:13:06.457Z,644.00
2024-04-19T06:14:06.435Z,684.00
2024-04-19T06:15:06.432Z,712.00
2024-04-19T06:16:06.428Z,748.00
2024-04-19T06:17:06.391Z,788.00
2024-04-19T06:18:06.496Z,776.00
2024-04-19T06:19:06.500Z,792.00
2024-04-19T06:20:06.349Z,808.00
2024-04-19T06:21:06.328Z,836.00
2024-04-19T06:22:06.313Z,884.00
2024-04-19T06:23:06.293Z,888.00
2024-04-19T06:24:06.283Z,876.00
2024-04-19T06:25:06.263Z,916.00
2024-04-19T06:26:06.331Z,956.00
2024-04-19T06:27:06.239Z,984.00
2024-04-19T06:28:06.228Z,988.00
2024-04-19T06:29:06.199Z,936.00
2024-04-19T06:30:06.189Z,940.00
2024-04-19T06:31:06.166Z,916.00
2024-04-19T06:32:06.205Z,892.00
2024-04-19T06:33:06.169Z,896.00
2024-04-19T06:34:06.116Z,888.00
2024-04-19T06:35:06.120Z,912.00
2024-04-19T06:36:06.104Z,924.00
2024-04-19T06:37:06.089Z,948.00
2024-04-19T06:38:06.052Z,968.00
2024-04-19T06:39:06.043Z,992.00
2024-04-19T06:40:07.999Z,1008.00
2024-04-19T06:41:06.017Z,1000.00
2024-04-19T06:42:06.000Z,996.00
2024-04-19T06:43:05.989Z,1012.00
2024-04-19T06:44:05.967Z,1000.00
2024-04-19T06:45:39.212Z,1016.00
2024-04-19T06:46:05.951Z,1032.00
2024-04-19T06:47:05.933Z,1064.00
2024-04-19T06:48:05.973Z,1060.00
2024-04-19T06:49:05.926Z,1060.00
2024-04-19T06:50:05.864Z,1080.00
2024-04-19T06:51:05.846Z,1096.00
2024-04-19T06:52:05.866Z,1104.00
2024-04-19T06:53:05.818Z,1132.00
2024-04-19T06:54:05.806Z,1180.00
2024-04-19T06:55:05.782Z,1260.00
2024-04-19T06:56:05.770Z,1376.00
2024-04-19T06:57:05.757Z,1440.00
2024-04-19T06:58:05.772Z,1504.00
2024-04-19T06:59:05.730Z,1556.00
2024-04-19T07:00:16.143Z,1568.00
2024-04-19T07:01:15.980Z,1544.00
2024-04-19T07:02:05.713Z,1616.00
2024-04-19T07:03:08.821Z,1660.00
2024-04-19T07:04:05.760Z,1688.00
2024-04-19T07:05:05.656Z,1644.00
2024-04-19T07:06:05.627Z,1632.00
2024-04-19T07:07:05.622Z,1680.00
2024-04-19T07:08:05.595Z,1704.00
2024-04-19T07:09:05.595Z,1700.00
2024-04-19T07:10:05.686Z,1616.00
2024-04-19T07:11:05.552Z,1696.00
2024-04-19T07:12:05.572Z,1676.00
2024-04-19T07:13:05.873Z,1572.00
2024-04-19T07:14:05.487Z,1616.00
2024-04-19T07:15:05.474Z,1448.00
2024-04-19T07:16:05.482Z,1384.00
2024-04-19T07:17:05.544Z,1396.00
2024-04-19T07:18:05.536Z,1300.00
2024-04-19T07:19:05.416Z,1200.00
2024-04-19T07:20:05.396Z,1092.00
2024-04-19T07:21:05.431Z,1024.00
2024-04-19T07:22:05.388Z,1064.00
2024-04-19T07:23:05.360Z,1116.00
2024-04-19T07:24:05.386Z,1232.00
2024-04-19T07:25:05.319Z,1272.00
2024-04-19T07:26:05.316Z,1304.00
2024-04-19T07:27:05.291Z,1288.00
2024-04-19T07:28:05.340Z,1132.00
2024-04-19T07:29:05.262Z,1056.00
2024-04-19T07:30:05.249Z,1028.00
2024-04-19T07:31:05.222Z,1008.00
2024-04-19T07:32:05.253Z,1040.00
2024-04-19T07:33:05.294Z,1152.00
2024-04-19T07:34:05.234Z,1184.00
2024-04-19T07:35:05.216Z,1288.00
2024-04-19T07:36:38.384Z,1344.00
2024-04-19T07:37:05.173Z,1368.00
2024-04-19T07:38:05.139Z,1392.00
2024-04-19T07:39:05.137Z,1428.00
2024-04-19T07:40:05.099Z,1440.00
2024-04-19T07:41:05.119Z,1432.00
2024-04-19T07:42:05.059Z,1392.00
2024-04-19T07:43:05.112Z,1404.00
2024-04-19T07:44:05.027Z,1468.00
2024-04-19T07:45:05.031Z,1492.00
2024-04-19T07:46:05.011Z,1608.00
2024-04-19T07:47:04.991Z,1680.00
2024-04-19T07:48:05.090Z,1708.00
2024-04-19T07:49:05.129Z,1744.00
2024-04-19T07:50:04.946Z,1752.00
2024-04-19T07:51:04.928Z,1760.00
2024-04-19T07:52:04.927Z,1836.00
2024-04-19T07:53:04.897Z,1844.00
2024-04-19T07:54:04.882Z,1884.00
2024-04-19T07:55:05.073Z,1904.00
2024-04-19T07:56:04.847Z,1964.00
2024-04-19T07:57:04.841Z,1964.00
2024-04-19T07:58:04.831Z,1992.00
2024-04-19T07:59:04.811Z,1992.00
2024-04-19T08:00:04.792Z,2020.00
2024-04-19T08:01:04.821Z,2068.00
2024-04-19T08:02:04.799Z,2100.00
2024-04-19T08:03:04.746Z,2056.00
2024-04-19T08:04:05.166Z,2008.00
2024-04-19T08:05:04.713Z,1912.00
2024-04-19T08:06:04.703Z,1808.00
2024-04-19T08:07:04.686Z,1700.00
2024-04-19T08:08:04.683Z,1596.00
2024-04-19T08:09:04.661Z,1540.00
2024-04-19T08:10:04.661Z,1528.00
2024-04-19T08:11:04.632Z,1548.00
2024-04-19T08:12:04.642Z,1588.00
2024-04-19T08:13:04.668Z,1640.00
2024-04-19T08:14:04.588Z,1684.00
2024-04-19T08:15:04.581Z,1724.00
2024-04-19T08:16:04.572Z,1780.00
2024-04-19T08:17:04.840Z,1832.00
2024-04-19T08:18:04.787Z,1864.00
2024-04-19T08:19:04.525Z,1884.00
2024-04-19T08:20:04.508Z,1888.00
2024-04-19T08:21:04.863Z,1904.00
2024-04-19T08:22:04.773Z,1948.00
2024-04-19T08:23:04.704Z,1988.00
2024-04-19T08:24:04.780Z,2064.00
2024-04-19T08:25:04.826Z,2116.00
2024-04-19T08:26:04.422Z,2112.00
2024-04-19T08:27:04.415Z,2116.00
2024-04-19T08:28:04.479Z,2128.00
2024-04-19T08:29:11.865Z,2100.00
2024-04-19T08:30:04.356Z,2080.00
2024-04-19T08:31:04.333Z,2144.00
2024-04-19T08:32:04.342Z,2216.00
2024-04-19T08:33:04.326Z,2240.00
2024-04-19T08:34:04.410Z,2320.00
2024-04-19T08:35:04.276Z,2428.00
2024-04-19T08:36:04.266Z,2552.00
2024-04-19T08:37:04.251Z,2668.00
2024-04-19T08:38:04.241Z,2776.00
2024-04-19T08:39:04.216Z,2832.00
2024-04-19T08:40:04.367Z,2908.00
2024-04-19T08:41:04.216Z,2928.00
2024-04-19T08:42:04.201Z,2980.00
2024-04-19T08:43:04.206Z,3016.00
2024-04-19T08:44:04.164Z,3120.00
2024-04-19T08:45:04.145Z,3172.00
2024-04-19T08:46:04.761Z,3124.00
2024-04-19T08:47:04.111Z,3076.00
2024-04-19T08:48:04.136Z,3036.00
2024-04-19T08:49:04.135Z,3016.00
2024-04-19T08:50:04.074Z,2976.00
2024-04-19T08:51:04.059Z,2908.00
2024-04-19T08:52:20.710Z,2836.00
2024-04-19T08:53:14.756Z,2808.00
2024-04-19T08:54:04.013Z,2812.00
2024-04-19T08:55:03.998Z,2840.00
2024-04-19T08:56:03.987Z,2804.00
2024-04-19T08:57:03.968Z,2720.00
2024-04-19T08:58:03.973Z,2628.00
2024-04-19T08:59:03.938Z,2584.00
2024-04-19T09:00:11.183Z,2580.00
2024-04-19T09:01:04.162Z,2496.00
2024-04-19T09:02:03.900Z,2452.00
2024-04-19T09:03:04.103Z,2448.00
2024-04-19T09:04:03.932Z,2496.00
2024-04-19T09:05:03.863Z,2544.00
2024-04-19T09:06:03.853Z,2540.00
2024-04-19T09:07:03.832Z,2564.00
2024-04-19T09:08:03.834Z,2516.00
2024-04-19T09:09:03.825Z,2620.00
2024-04-19T09:10:06.045Z,2832.00
2024-04-19T09:11:03.774Z,3028.00
2024-04-19T09:12:03.767Z,3120.00
2024-04-19T09:13:03.762Z,2884.00
2024-04-19T09:14:03.879Z,2696.00
2024-04-19T09:15:03.731Z,2572.00
2024-04-19T09:16:03.744Z,2488.00
2024-04-19T09:17:03.735Z,2468.00
2024-04-19T09:18:03.694Z,2500.00
2024-04-19T09:19:03.677Z,2548.00
2024-04-19T09:20:03.673Z,2368.00
2024-04-19T09:21:03.644Z,2148.00
2024-04-19T09:22:03.635Z,2096.00
2024-04-19T09:23:03.620Z,1992.00
2024-04-19T09:24:03.609Z,1888.00
2024-04-19T09:25:03.596Z,1988.00
2024-04-19T09:26:03.594Z,2136.00
2024-04-19T09:27:13.955Z,2264.00
2024-04-19T09:28:03.572Z,2552.00
2024-04-19T09:29:03.540Z,2744.00
2024-04-19T09:30:03.596Z,2932.00
2024-04-19T09:31:03.510Z,2956.00
2024-04-19T09:32:03.510Z,2872.00
2024-04-19T09:33:03.525Z,2776.00
2024-04-19T09:34:03.510Z,2772.00
2024-04-19T09:35:03.455Z,2752.00
2024-04-19T09:36:03.447Z,2680.00
2024-04-19T09:37:03.446Z,2724.00
2024-04-19T09:38:03.434Z,2740.00
2024-04-19T09:39:03.405Z,2800.00
2024-04-19T09:40:03.403Z,2892.00
2024-04-19T09:41:03.386Z,2852.00
2024-04-19T09:42:03.374Z,2848.00
2024-04-19T09:43:04.798Z,2848.00
2024-04-19T09:44:03.343Z,2596.00
2024-04-19T09:45:03.328Z,2460.00
2024-04-19T09:46:03.328Z,2644.00
2024-04-19T09:47:03.417Z,2644.00
2024-04-19T09:48:03.289Z,2752.00
2024-04-19T09:49:03.324Z,2704.00
2024-04-19T09:50:03.278Z,2640.00
2024-04-19T09:51:03.252Z,2660.00
2024-04-19T09:52:03.242Z,2664.00
2024-04-19T09:53:03.223Z,2764.00
2024-04-19T09:54:03.245Z,2732.00
2024-04-19T09:55:03.195Z,2812.00
2024-04-19T09:56:03.184Z,2728.00
2024-04-19T09:57:03.175Z,2704.00
2024-04-19T09:58:03.174Z,2708.00
2024-04-19T09:59:03.142Z,2736.00
2024-04-19T10:00:03.128Z,2644.00
2024-04-19T10:01:03.199Z,2580.00
2024-04-19T10:02:03.218Z,2660.00
2024-04-19T10:03:03.198Z,2628.00
2024-04-19T10:04:03.196Z,2520.00
2024-04-19T10:05:03.192Z,2572.00
2024-04-19T10:06:03.050Z,2560.00
2024-04-19T10:07:03.161Z,2616.00
2024-04-19T10:08:03.042Z,2572.00
2024-04-19T10:09:03.007Z,2440.00
2024-04-19T10:10:02.995Z,2264.00
2024-04-19T10:11:03.076Z,2168.00
2024-04-19T10:12:02.970Z,2096.00
2024-04-19T10:13:02.991Z,1968.00
2024-04-19T10:14:02.943Z,1892.00
2024-04-19T10:15:02.926Z,1744.00
2024-04-19T10:16:02.948Z,1736.00
2024-04-19T10:17:02.909Z,1756.00
2024-04-19T10:18:04.035Z,1672.00
2024-04-19T10:19:02.950Z,1636.00
2024-04-19T10:20:02.869Z,1664.00
2024-04-19T10:21:02.847Z,1684.00
2024-04-19T10:22:02.849Z,1648.00
2024-04-19T10:23:02.822Z,1556.00
2024-04-19T10:24:02.809Z,1440.00
2024-04-19T10:25:02.905Z,1428.00
2024-04-19T10:26:02.782Z,1432.00
2024-04-19T10:27:02.767Z,1548.00
2024-04-19T10:28:02.755Z,1604.00
2024-04-19T10:29:02.769Z,1652.00
2024-04-19T10:30:02.743Z,1756.00
2024-04-19T10:31:07.035Z,1832.00
2024-04-19T10:32:02.741Z,1864.00
2024-04-19T10:33:02.733Z,1796.00
2024-04-19T10:34:02.687Z,1736.00
2024-04-19T10:35:02.738Z,1644.00
2024-04-19T10:36:03.209Z,1584.00
2024-04-19T10:37:02.635Z,1608.00
2024-04-19T10:38:02.633Z,1704.00
2024-04-19T10:39:02.607Z,1800.00
2024-04-19T10:40:02.591Z,1824.00
2024-04-19T10:41:02.582Z,1852.00
2024-04-19T10:42:02.604Z,1852.00
2024-04-19T10:43:02.579Z,1928.00
2024-04-19T10:44:02.552Z,1952.00
2024-04-19T10:45:02.547Z,1952.00
2024-04-19T10:46:02.539Z,1932.00
2024-04-19T10:47:02.525Z,1912.00
2024-04-19T10:48:02.540Z,1912.00
2024-04-19T10:49:02.632Z,1832.00
2024-04-19T10:50:02.465Z,1820.00
2024-04-19T10:51:02.454Z,1952.00
2024-04-19T10:52:02.476Z,2088.00
2024-04-19T10:53:02.429Z,2256.00
2024-04-19T10:54:02.401Z,2436.00
2024-04-19T10:55:02.532Z,2552.00
2024-04-19T10:56:02.372Z,2756.00
2024-04-19T10:57:02.369Z,2956.00
2024-04-19T10:58:02.346Z,3016.00
2024-04-19T10:59:02.340Z,2904.00
2024-04-19T11:00:02.335Z,2676.00
2024-04-19T11:01:02.372Z,2420.00
2024-04-19T11:02:02.323Z,2308.00
2024-04-19T11:03:10.143Z,2408.00
2024-04-19T11:04:02.380Z,2488.00
2024-04-19T11:05:02.262Z,2324.00
2024-04-19T11:06:02.240Z,2316.00
2024-04-19T11:07:02.294Z,2408.00
2024-04-19T11:08:02.213Z,2328.00
2024-04-19T11:09:02.196Z,2296.00
2024-04-19T11:10:02.232Z,2232.00
2024-04-19T11:11:02.196Z,2236.00
2024-04-19T11:12:02.183Z,2168.00
2024-04-19T11:13:02.174Z,2208.00
2024-04-19T11:14:02.120Z,2212.00
2024-04-19T11:15:02.177Z,2372.00
2024-04-19T11:16:02.145Z,2360.00
2024-04-19T11:17:02.081Z,2256.00
2024-04-19T11:18:02.180Z,2236.00
2024-04-19T11:19:02.133Z,2236.00
2024-04-19T11:20:02.078Z,2212.00
2024-04-19T11:21:08.315Z,2104.00
2024-04-19T11:22:02.105Z,2128.00
2024-04-19T11:23:02.025Z,2132.00
2024-04-19T11:24:01.983Z,2056.00
2024-04-19T11:25:02.063Z,1980.00
2024-04-19T11:26:01.960Z,1980.00
2024-04-19T11:27:01.947Z,1852.00
2024-04-19T11:28:01.992Z,1844.00
2024-04-19T11:29:01.917Z,1772.00
2024-04-19T11:30:01.933Z,1868.00
2024-04-19T11:31:01.920Z,1940.00
2024-04-19T11:32:01.883Z,1864.00
2024-04-19T11:33:01.924Z,1892.00
2024-04-19T11:34:01.906Z,2024.00
2024-04-19T11:35:01.856Z,2220.00
2024-04-19T11:36:01.828Z,2216.00
2024-04-19T11:37:01.850Z,2172.00
2024-04-19T11:38:01.817Z,1984.00
2024-04-19T11:39:01.831Z,1920.00
2024-04-19T11:40:01.818Z,1724.00
2024-04-19T11:41:01.763Z,1504.00
2024-04-19T11:42:01.746Z,1316.00
2024-04-19T11:43:01.806Z,1200.00
2024-04-19T11:44:01.724Z,1172.00
2024-04-19T11:45:01.700Z,1152.00
2024-04-19T11:46:01.762Z,1128.00
2024-04-19T11:47:01.678Z,1104.00
2024-04-19T11:48:01.894Z,1028.00
2024-04-19T11:49:01.691Z,1052.00
2024-04-19T11:50:01.659Z,1076.00
2024-04-19T11:51:01.642Z,1076.00
2024-04-19T11:52:01.672Z,1044.00
2024-04-19T11:53:01.603Z,1044.00
2024-04-19T11:54:01.594Z,1036.00
2024-04-19T11:55:01.621Z,944.00
2024-04-19T11:56:01.558Z,1012.00
2024-04-19T11:57:01.563Z,1192.00
2024-04-19T11:58:01.688Z,1084.00
2024-04-19T11:59:01.527Z,1316.00
2024-04-19T12:00:01.504Z,1680.00
2024-04-19T12:01:01.648Z,2132.00
2024-04-19T12:02:01.482Z,2496.00
2024-04-19T12:03:01.537Z,2536.00
2024-04-19T12:04:01.649Z,2564.00
2024-04-19T12:05:01.509Z,2624.00
2024-04-19T12:06:01.446Z,2620.00
2024-04-19T12:07:01.523Z,2588.00
2024-04-19T12:08:01.396Z,2632.00
2024-04-19T12:09:01.384Z,2780.00
2024-04-19T12:10:01.450Z,2816.00
2024-04-19T12:11:01.394Z,2724.00
2024-04-19T12:14:56.767Z,2572.00
2024-04-19T12:15:44.662Z,2500.00
2024-04-19T12:16:31.886Z,2468.00
2024-04-19T12:17:09.513Z,2312.00
2024-04-19T12:18:01.741Z,2224.00
2024-04-19T12:19:01.518Z,2192.00
2024-04-19T12:20:08.062Z,2220.00
2024-04-19T12:21:01.615Z,2236.00
2024-04-19T12:22:02.587Z,2284.00
2024-04-19T12:23:05.917Z,2296.00
2024-04-19T12:24:01.678Z,2292.00
2024-04-19T12:25:02.141Z,2288.00
2024-04-19T12:26:02.606Z,2256.00
2024-04-19T12:27:01.293Z,2332.00
2024-04-19T12:28:01.388Z,2360.00
2024-04-19T12:29:01.260Z,2340.00
2024-04-19T12:30:01.147Z,2288.00
2024-04-19T12:31:01.128Z,2196.00
2024-04-19T12:32:01.104Z,2076.00
2024-04-19T12:33:01.155Z,2096.00
2024-04-19T12:34:01.218Z,2248.00
2024-04-19T12:35:01.035Z,2340.00
2024-04-19T12:36:01.089Z,2444.00
2024-04-19T12:37:01.148Z,2432.00
2024-04-19T12:38:00.974Z,2412.00
2024-04-19T12:39:00.978Z,2416.00
2024-04-19T12:40:01.178Z,2488.00